Amsden, Ohio
Current Conditions -  °F | °C
As of 7:53 AM on Friday 19 Dec 2014 (Local Time) from KFDY Reporting Station
Haze Haze  
Wind Chill: -6°   Ceiling: 1100
Heat Index: -2°   Visibility: 6mi
Dew Point: -4°   Wind: 7mph
Humidity: 82%   Direction: 280°W
Pressure: 30.24"   Gusts: NA
Location:  41.22°N, 83.33°W
Report Text: KFDY 191253Z AUTO 28006KT 6SM HZ OVC011 M02/M04 A3024 RMK AO2 SLP248 T10171044
Loading
Personal Weather Stations






























Interactive Weather Map New forecast layout! Learn more

10-Day Weather Forecast

Advertisements
Track Severe Weather on mobile